Annville, Kentucky
Current Conditions -  °F | °C
As of 6:53 PM on Sunday 21 Dec 2014 (Local Time) from KLOZ Reporting Station
Clear Clear  
Wind Chill: 38°   Ceiling: Unl
Heat Index: 41°   Visibility: 10mi
Dew Point: 27°   Wind: 5mph
Humidity: 57%   Direction: 50°NE
Pressure: 30.1"   Gusts: NA
Location:  37.32°N, 83.97°W
Report Text: KLOZ 212353Z AUTO 05004KT 10SM CLR 05/M03 A3010 RMK AO2 SLP202 T00501028 10100 20044 58003 $
Loading
Personal Weather Stations






























Interactive Weather Map New forecast layout! Learn more

10-Day Weather Forecast

Advertisements
Track Severe Weather on mobile